^^
Your Local Weather - Clay, NY Station Historical Data
Daily Summary for January 25, 2017 Units:  Metric    English   Both
« Previous Day
Next Day »
Daily Weekly Monthly Yearly Custom
  High: Low: Average:
Temperature: 3.3 °C -1.8 °C 0.7 °C
Dew Point: 1.5 °C -3.2 °C -0.5 °C
Humidity: 94% 87% 91%
Wind Speed: 4.8km/h 0km/h 1.8km/h
Wind Gust: 12.9km/h - -
Wind- - WSW
Pressure: 1004.6 hPa 996.2 hPa -
Precipitation: 3.81 mm    
Historical Graphs
 
 
Tabular Data for January 25, 2017
Time Temperature Dew Point Pressure Wind Wind Speed Wind Gust Humidity Rainfall Rate (Hourly) solar
00:02 -1.7 °C -3.2 °C 1002.9 hPa NW 1.6 km/h 3.2 km/h 90% 0 mm 0 W/m2
00:08 -1.7 °C -3.2 °C 1002.9 hPa WNW 1.6 km/h 4.8 km/h 90% 0 mm 0 W/m2
00:13 -1.7 °C -3.2 °C 1002.9 hPa WNW 1.6 km/h 1.6 km/h 90% 0 mm 0 W/m2
00:19 -1.7 °C -3.2 °C 1002.9 hPa WNW 1.6 km/h 4.8 km/h 90% 0 mm 0 W/m2
00:26 -1.7 °C -3.2 °C 1002.9 hPa WNW 1.6 km/h 4.8 km/h 90% 0 mm 0 W/m2
00:32 -1.7 °C -3.2 °C 1002.9 hPa WNW 1.6 km/h 3.2 km/h 90% 0 mm 0 W/m2
00:38 -1.7 °C -3.2 °C 1002.9 hPa WNW 1.6 km/h 3.2 km/h 90% 0 mm 0 W/m2
00:44 -1.7 °C -3.2 °C 1002.9 hPa WNW 1.6 km/h 4.8 km/h 90% 0 mm 0 W/m2
00:50 -1.7 °C -3 °C 1002.9 hPa WNW 1.6 km/h 1.6 km/h 91% 0 mm 0 W/m2
00:56 -1.7 °C -3 °C 1002.9 hPa WNW 1.6 km/h 3.2 km/h 91% 0 mm 0 W/m2
01:02 -1.7 °C -3 °C 1002.9 hPa WNW 1.6 km/h 3.2 km/h 91% 0 mm 0 W/m2
01:08 -1.8 °C -3.1 °C 1002.9 hPa West 1.6 km/h 3.2 km/h 91% 0 mm 0 W/m2
01:13 -1.8 °C -3.1 °C 1002.9 hPa NW 1.6 km/h 4.8 km/h 91% 0 mm 0 W/m2
01:20 -1.8 °C -3.1 °C 1002.9 hPa NW 1.6 km/h 3.2 km/h 91% 0 mm 0 W/m2
01:26 -1.8 °C -3.1 °C 1002.9 hPa NW 1.6 km/h 3.2 km/h 91% 0 mm 0 W/m2
01:32 -1.8 °C -3.1 °C 1002.9 hPa NW 3.2 km/h 3.2 km/h 91% 0 mm 0 W/m2
01:38 -1.8 °C -2.9 °C 1002.9 hPa NW 1.6 km/h 3.2 km/h 92% 0 mm 0 W/m2
01:44 -1.8 °C -2.9 °C 1002.9 hPa NW 1.6 km/h 3.2 km/h 92% 0 mm 0 W/m2
01:49 -1.8 °C -2.9 °C 1002.9 hPa NW 3.2 km/h 6.4 km/h 92% 0 mm 0 W/m2
01:56 -1.8 °C -2.9 °C 1002.9 hPa NW 3.2 km/h 6.4 km/h 92% 0 mm 0 W/m2
02:02 -1.8 °C -2.9 °C 1002.9 hPa NW 1.6 km/h 1.6 km/h 92% 0 mm 0 W/m2
02:10 -1.8 °C -2.9 °C 1002.9 hPa NW 1.6 km/h 1.6 km/h 92% 0 mm 0 W/m2
02:15 -1.8 °C -2.9 °C 1003.3 hPa NW 1.6 km/h 4.8 km/h 92% 0 mm 0 W/m2
02:22 -1.7 °C -2.8 °C 1003.3 hPa NW 1.6 km/h 1.6 km/h 92% 0 mm 0 W/m2
02:28 -1.8 °C -2.9 °C 1003.3 hPa NW 1.6 km/h 6.4 km/h 92% 0 mm 0 W/m2
02:33 -1.7 °C -2.8 °C 1003.3 hPa NW 1.6 km/h 1.6 km/h 92% 0 mm 0 W/m2
02:40 -1.7 °C -2.8 °C 1003.3 hPa Calm     92% 0 mm 0 W/m2
02:46 -1.7 °C -2.8 °C 1003.3 hPa WSW 1.6 km/h 1.6 km/h 92% 0 mm 0 W/m2
02:52 -1.7 °C -2.7 °C 1003.3 hPa WNW 1.6 km/h 1.6 km/h 93% 0 mm 0 W/m2
02:58 -1.7 °C -2.7 °C 1003.3 hPa WSW 3.2 km/h 8 km/h 93% 0 mm 0 W/m2
03:04 -1.7 °C -2.7 °C 1003.3 hPa WSW 1.6 km/h 1.6 km/h 93% 0 mm 0 W/m2
03:10 -1.6 °C -2.6 °C 1003.3 hPa NW 1.6 km/h 1.6 km/h 93% 0 mm 0 W/m2
03:15 -1.6 °C -2.6 °C 1003.3 hPa NW 1.6 km/h 3.2 km/h 93% 0 mm 0 W/m2
03:22 -1.6 °C -2.6 °C 1003.3 hPa WSW 3.2 km/h 3.2 km/h 93% 0 mm 0 W/m2
03:28 -1.6 °C -2.6 °C 1003.3 hPa WSW 3.2 km/h 3.2 km/h 93% 0 mm 0 W/m2
03:34 -1.5 °C -2.5 °C 1003.6 hPa WSW 3.2 km/h 4.8 km/h 93% 0 mm 0 W/m2
03:40 -1.5 °C -2.5 °C 1003.6 hPa WNW 1.6 km/h 4.8 km/h 93% 0 mm 0 W/m2
03:46 -1.4 °C -2.4 °C 1003.6 hPa West 1.6 km/h 4.8 km/h 93% 0 mm 0 W/m2
03:52 -1.4 °C -2.4 °C 1003.6 hPa West 1.6 km/h 1.6 km/h 93% 0 mm 0 W/m2
03:58 -1.3 °C -2.3 °C 1003.6 hPa Calm   4.8 km/h 93% 0 mm 0 W/m2
04:04 -1.3 °C -2.3 °C 1003.6 hPa WNW 1.6 km/h 1.6 km/h 93% 0 mm 0 W/m2
04:10 -1.3 °C -2.3 °C 1003.6 hPa WNW 1.6 km/h 1.6 km/h 93% 0 mm 0 W/m2
04:16 -1.2 °C -2.2 °C 1003.6 hPa WNW 1.6 km/h 4.8 km/h 93% 0 mm 0 W/m2
04:22 -1.2 °C -2.2 °C 1003.6 hPa WNW 1.6 km/h 4.8 km/h 93% 0 mm 0 W/m2
04:28 -1.2 °C -2.2 °C 1003.6 hPa West 1.6 km/h 4.8 km/h 93% 0 mm 0 W/m2
04:34 -1.2 °C -2.2 °C 1003.6 hPa West 1.6 km/h 3.2 km/h 93% 0 mm 0 W/m2
04:39 -1.2 °C -2.2 °C 1003.6 hPa WSW 1.6 km/h 3.2 km/h 93% 0 mm 0 W/m2
04:46 -1.1 °C -2.1 °C 1003.6 hPa WSW 1.6 km/h 3.2 km/h 93% 0 mm 0 W/m2
04:52 -1.1 °C -2.1 °C 1003.6 hPa WSW 1.6 km/h 1.6 km/h 93% 0 mm 0 W/m2
04:58 -1.1 °C -2.1 °C 1003.6 hPa WSW 1.6 km/h 1.6 km/h 93% 0 mm 0 W/m2
05:04 -1.1 °C -2.1 °C 1003.6 hPa WSW 1.6 km/h 3.2 km/h 93% 0 mm 0 W/m2
05:09 -1.1 °C -2.1 °C 1003.6 hPa WSW 1.6 km/h 1.6 km/h 93% 0 mm 0 W/m2
05:16 -1.1 °C -2.1 °C 1003.9 hPa WSW 1.6 km/h 3.2 km/h 93% 0 mm 0 W/m2
05:22 -1.1 °C -2.1 °C 1003.9 hPa WSW 1.6 km/h 6.4 km/h 93% 0 mm 0 W/m2
05:28 -1.1 °C -2.1 °C 1003.9 hPa WSW 1.6 km/h 6.4 km/h 93% 0 mm 0 W/m2
05:34 -1 °C -2 °C 1003.9 hPa Calm   1.6 km/h 93% 0 mm 0 W/m2
05:40 -0.9 °C -1.9 °C 1003.9 hPa Calm   3.2 km/h 93% 0 mm 0 W/m2
05:46 -0.9 °C -1.9 °C 1003.9 hPa Calm   3.2 km/h 93% 0 mm 0 W/m2
05:52 -0.9 °C -1.9 °C 1003.9 hPa WSW 1.6 km/h 1.6 km/h 93% 0 mm 0 W/m2
05:58 -0.8 °C -1.8 °C 1003.9 hPa WSW 1.6 km/h 1.6 km/h 93% 0 mm 0 W/m2
06:04 -0.8 °C -1.8 °C 1003.9 hPa WSW 1.6 km/h 4.8 km/h 93% 0 mm 0 W/m2
06:10 -0.8 °C -1.8 °C 1003.9 hPa WSW 1.6 km/h 1.6 km/h 93% 0 mm 0 W/m2
06:16 -0.8 °C -1.8 °C 1003.9 hPa WSW 1.6 km/h 1.6 km/h 93% 0 mm 0 W/m2
06:22 -0.8 °C -1.8 °C 1003.9 hPa SW 1.6 km/h 1.6 km/h 93% 0 mm 0 W/m2
06:28 -0.8 °C -1.6 °C 1003.9 hPa WSW 3.2 km/h 3.2 km/h 94% 0 mm 0 W/m2
06:33 -0.7 °C -1.6 °C 1003.9 hPa WSW 1.6 km/h 3.2 km/h 94% 0 mm 0 W/m2
06:40 -0.7 °C -1.5 °C 1003.9 hPa West 1.6 km/h 1.6 km/h 94% 0 mm 0 W/m2
06:46 -0.6 °C -1.4 °C 1003.9 hPa West 3.2 km/h 6.4 km/h 94% 0 mm 0 W/m2
06:52 -0.5 °C -1.3 °C 1003.9 hPa NW 3.2 km/h 3.2 km/h 94% 0 mm 0 W/m2
06:58 -0.4 °C -1.3 °C 1003.9 hPa WSW 1.6 km/h 4.8 km/h 94% 0 mm 0 W/m2
07:04 -0.3 °C -1.2 °C 1003.9 hPa WSW 3.2 km/h 3.2 km/h 94% 0 mm 0 W/m2
07:10 -0.3 °C -1.1 °C 1003.9 hPa WSW 3.2 km/h 3.2 km/h 94% 0 mm 0 W/m2
07:16 -0.2 °C -1 °C 1004.3 hPa West 3.2 km/h 4.8 km/h 94% 0 mm 0 W/m2
07:22 -0.1 °C -0.9 °C 1004.3 hPa WSW 3.2 km/h 4.8 km/h 94% 0 mm 0 W/m2
07:28 -0.1 °C -0.9 °C 1004.6 hPa WNW 3.2 km/h 4.8 km/h 94% 0 mm 0 W/m2
07:34 -0.1 °C -0.9 °C 1004.6 hPa West 3.2 km/h 4.8 km/h 94% 0 mm 0 W/m2
07:40 -0.1 °C -1.1 °C 1004.3 hPa West 3.2 km/h 3.2 km/h 93% 0 mm 0 W/m2
07:46 -0.1 °C -1.1 °C 1004.3 hPa WNW 3.2 km/h 3.2 km/h 93% 0 mm 0 W/m2
07:52 -0.1 °C -0.9 °C 1004.3 hPa WSW 1.6 km/h 1.6 km/h 94% 0 mm 5 W/m2
07:58 -0.1 °C -0.9 °C 1004.6 hPa West 3.2 km/h 6.4 km/h 94% 0 mm 5 W/m2
08:03 -0.1 °C -0.9 °C 1004.6 hPa NW 1.6 km/h 3.2 km/h 94% 0 mm 7 W/m2
08:10 -0.1 °C -0.9 °C 1004.6 hPa West 3.2 km/h 3.2 km/h 94% 0 mm 7 W/m2
08:16 -0.1 °C -1.1 °C 1004.6 hPa West 3.2 km/h 4.8 km/h 93% 0 mm 12 W/m2
08:22 -0.1 °C -0.9 °C 1004.6 hPa WNW 3.2 km/h 4.8 km/h 94% 0 mm 12 W/m2
08:28 -0.1 °C -0.9 °C 1004.6 hPa West 4.8 km/h 12.9 km/h 94% 0 mm 16 W/m2
08:34 -0.1 °C -0.9 °C 1004.6 hPa WNW 4.8 km/h 8 km/h 94% 0 mm 18 W/m2
08:40 -0.1 °C -0.9 °C 1004.6 hPa NW 3.2 km/h 3.2 km/h 94% 0 mm 25 W/m2
08:45 0.1 °C -0.9 °C 1004.3 hPa WNW 4.8 km/h 6.4 km/h 93% 0 mm 30 W/m2
08:52 0.1 °C -0.9 °C 1004.3 hPa West 4.8 km/h 4.8 km/h 93% 0 mm 28 W/m2
08:58 0.1 °C -0.9 °C 1004.3 hPa WNW 3.2 km/h 4.8 km/h 93% 0 mm 83 W/m2
09:04 0.2 °C -0.8 °C 1003.9 hPa West 3.2 km/h 8 km/h 93% 0 mm 63 W/m2
09:10 0.3 °C -0.7 °C 1004.3 hPa West 3.2 km/h 3.2 km/h 93% 0 mm 53 W/m2
09:16 0.3 °C -0.7 °C 1004.3 hPa WNW 1.6 km/h 3.2 km/h 93% 0 mm 63 W/m2
09:22 0.4 °C -0.8 °C 1004.3 hPa WSW 3.2 km/h 6.4 km/h 92% 0 mm 111 W/m2
09:28 0.4 °C -0.7 °C 1004.3 hPa WSW 3.2 km/h 6.4 km/h 92% 0 mm 91 W/m2
09:34 0.6 °C -0.6 °C 1004.3 hPa WSW 3.2 km/h 6.4 km/h 92% 0 mm 109 W/m2
09:40 0.6 °C -0.6 °C 1004.3 hPa West 3.2 km/h 3.2 km/h 92% 0 mm 107 W/m2
09:45 0.6 °C -0.6 °C 1004.3 hPa NW 3.2 km/h 11.3 km/h 92% 0 mm 83 W/m2
09:52 0.6 °C -0.6 °C 1004.6 hPa West 3.2 km/h 3.2 km/h 92% 0 mm 62 W/m2
09:58 0.6 °C -0.7 °C 1004.6 hPa WSW 3.2 km/h 9.7 km/h 91% 0 mm 63 W/m2
10:03 0.6 °C -0.7 °C 1004.6 hPa West 4.8 km/h 4.8 km/h 91% 0 mm 63 W/m2
10:10 0.6 °C -0.7 °C 1004.3 hPa West 3.2 km/h 3.2 km/h 91% 0 mm 95 W/m2
10:15 0.7 °C -0.6 °C 1004.3 hPa WNW 3.2 km/h 4.8 km/h 91% 0 mm 102 W/m2
10:22 0.7 °C -0.6 °C 1004.3 hPa WSW 3.2 km/h 8 km/h 91% 0 mm 69 W/m2
10:28 0.7 °C -0.6 °C 1004.3 hPa West 4.8 km/h 8 km/h 91% 0 mm 72 W/m2
10:34 0.8 °C -0.5 °C 1004.3 hPa WSW 3.2 km/h 9.7 km/h 91% 0 mm 84 W/m2
10:42 0.7 °C -0.6 °C 1003.9 hPa WNW 3.2 km/h 3.2 km/h 91% 0 mm 65 W/m2
10:48 0.8 °C -0.4 °C 1003.9 hPa WSW 1.6 km/h 3.2 km/h 92% 0 mm 77 W/m2
10:53 0.7 °C -0.4 °C 1003.9 hPa West 3.2 km/h 3.2 km/h 92% 0 mm 79 W/m2
11:00 0.8 °C -0.4 °C 1003.9 hPa WSW 3.2 km/h 3.2 km/h 92% 0 mm 91 W/m2
11:06 0.8 °C -0.3 °C 1003.6 hPa SW 3.2 km/h 3.2 km/h 92% 0 mm 142 W/m2
11:12 1 °C -0.2 °C 1003.6 hPa WSW 3.2 km/h 3.2 km/h 92% 0 mm 135 W/m2
11:18 1.1 °C -0.1 °C 1003.3 hPa West 3.2 km/h 4.8 km/h 92% 0 mm 216 W/m2
11:23 1.2 °C -0.2 °C 1003.3 hPa West 3.2 km/h 3.2 km/h 91% 0 mm 216 W/m2
11:30 1.3 °C -0.1 °C 1002.9 hPa West 3.2 km/h 3.2 km/h 91% 0 mm 188 W/m2
11:36 1.6 °C 0.3 °C 1002.9 hPa West 3.2 km/h 3.2 km/h 91% 0 mm 243 W/m2
11:42 1.8 °C 0.4 °C 1002.9 hPa West 3.2 km/h 11.3 km/h 90% 0 mm 239 W/m2
11:48 1.9 °C 0.4 °C 1002.9 hPa West 4.8 km/h 11.3 km/h 90% 0 mm 200 W/m2
11:53 1.9 °C 0.5 °C 1002.9 hPa West 4.8 km/h 4.8 km/h 90% 2.54 mm 181 W/m2
12:00 1.9 °C 0.3 °C 1002.9 hPa WSW 3.2 km/h 3.2 km/h 89% 2.54 mm 151 W/m2
12:06 1.9 °C 0.3 °C 1002.9 hPa West 4.8 km/h 4.8 km/h 89% 3.81 mm 186 W/m2
12:12 1.9 °C 0.3 °C 1003.3 hPa West 4.8 km/h 4.8 km/h 89% 3.56 mm 139 W/m2
12:18 1.9 °C 0.3 °C 1003.3 hPa West 4.8 km/h 4.8 km/h 89% 2.03 mm 132 W/m2
12:26 1.8 °C 0.2 °C 1002.9 hPa WNW 4.8 km/h 4.8 km/h 89% 1.02 mm 65 W/m2
12:32 1.8 °C 0.3 °C 1002.9 hPa WNW 3.2 km/h 3.2 km/h 90% 1.02 mm 79 W/m2
12:38 1.8 °C 0.3 °C 1002.9 hPa WSW 3.2 km/h 4.8 km/h 90% 1.02 mm 120 W/m2
12:44 1.9 °C 0.5 °C 1002.6 hPa WSW 4.8 km/h 4.8 km/h 90% 1.02 mm 167 W/m2
12:50 2.2 °C 0.8 °C 1002.3 hPa SW 3.2 km/h 3.2 km/h 90% 0 mm 118 W/m2
12:55 2.3 °C 0.8 °C 1002.3 hPa WSW 1.6 km/h 3.2 km/h 90% 0 mm 105 W/m2
13:02 2.3 °C 0.7 °C 1002.3 hPa SW 3.2 km/h 3.2 km/h 89% 0 mm 69 W/m2
13:08 2.3 °C 0.7 °C 1002.3 hPa WSW 3.2 km/h 6.4 km/h 89% 0 mm 70 W/m2
13:14 2.3 °C 0.7 °C 1002.6 hPa West 3.2 km/h 4.8 km/h 89% 0 mm 56 W/m2
13:20 2.3 °C 0.7 °C 1002.9 hPa WSW 4.8 km/h 4.8 km/h 89% 0 mm 53 W/m2
13:25 2.3 °C 0.7 °C 1002.9 hPa SW 4.8 km/h 6.4 km/h 89% 0 mm 53 W/m2
13:32 2.3 °C 0.7 °C 1002.6 hPa West 4.8 km/h 4.8 km/h 89% 0 mm 70 W/m2
13:38 2.4 °C 0.8 °C 1002.3 hPa SW 3.2 km/h 4.8 km/h 89% 0 mm 76 W/m2
13:44 2.4 °C 0.8 °C 1002.6 hPa WSW 1.6 km/h 6.4 km/h 89% 0 mm 81 W/m2
13:50 2.5 °C 0.9 °C 1002.9 hPa WSW 3.2 km/h 3.2 km/h 89% 0 mm 60 W/m2
13:56 2.6 °C 0.9 °C 1002.9 hPa West 3.2 km/h 9.7 km/h 89% 0 mm 76 W/m2
14:02 2.6 °C 1 °C 1002.9 hPa SSW 3.2 km/h 3.2 km/h 89% 0 mm 100 W/m2
14:08 2.7 °C 1.1 °C 1002.6 hPa WSW 3.2 km/h 4.8 km/h 89% 0 mm 74 W/m2
14:14 2.7 °C 1.1 °C 1002.6 hPa WSW 1.6 km/h 3.2 km/h 89% 0 mm 83 W/m2
14:19 2.8 °C 1.2 °C 1002.6 hPa SW 3.2 km/h 4.8 km/h 89% 0 mm 93 W/m2
14:26 2.9 °C 1.3 °C 1002.3 hPa WNW 3.2 km/h 4.8 km/h 89% 0 mm 86 W/m2
14:32 2.9 °C 1.2 °C 1002.3 hPa NW 1.6 km/h 3.2 km/h 88% 0 mm 88 W/m2
14:38 3.1 °C 1.4 °C 1001.9 hPa NW 1.6 km/h 3.2 km/h 89% 0 mm 93 W/m2
14:44 3.2 °C 1.4 °C 1001.9 hPa WNW 1.6 km/h 4.8 km/h 88% 0 mm 62 W/m2
14:49 3.2 °C 1.4 °C 1001.9 hPa WNW 1.6 km/h 1.6 km/h 88% 0 mm 62 W/m2
14:55 3.2 °C 1.4 °C 1001.9 hPa WSW 1.6 km/h 3.2 km/h 88% 0 mm 54 W/m2
15:02 3.2 °C 1.4 °C 1001.6 hPa WSW 1.6 km/h 1.6 km/h 88% 0 mm 51 W/m2
15:08 3.2 °C 1.4 °C 1001.2 hPa Calm   1.6 km/h 88% 0 mm 33 W/m2
15:13 3.2 °C 1.4 °C 1001.9 hPa Calm     88% 0 mm 23 W/m2
15:20 3.2 °C 1.4 °C 1001.9 hPa Calm     88% 0 mm 39 W/m2
15:26 3.3 °C 1.5 °C 1001.9 hPa Calm   4.8 km/h 88% 0 mm 53 W/m2
15:32 3.3 °C 1.5 °C 1001.9 hPa South 1.6 km/h 1.6 km/h 88% 0 mm 40 W/m2
15:38 3.3 °C 1.3 °C 1001.6 hPa WSW 1.6 km/h 1.6 km/h 87% 0 mm 37 W/m2
15:43 3.3 °C 1.3 °C 1001.9 hPa SSW 3.2 km/h 3.2 km/h 87% 0 mm 32 W/m2
15:50 3.3 °C 1.3 °C 1001.9 hPa WSW 1.6 km/h 1.6 km/h 87% 0 mm 25 W/m2
15:56 3.2 °C 1.3 °C 1001.9 hPa SW 1.6 km/h 1.6 km/h 87% 0 mm 19 W/m2
16:02 3.2 °C 1.3 °C 1001.6 hPa SW 1.6 km/h 3.2 km/h 87% 0 mm 18 W/m2
16:08 3.2 °C 1.2 °C 1001.6 hPa SW 1.6 km/h 3.2 km/h 87% 0 mm 14 W/m2
16:14 3.2 °C 1.2 °C 1001.9 hPa SW 1.6 km/h 1.6 km/h 87% 0 mm 12 W/m2
16:19 3.1 °C 1.2 °C 1001.9 hPa SW 1.6 km/h 1.6 km/h 87% 0 mm 5 W/m2
16:26 3.1 °C 1.2 °C 1001.2 hPa SSE 3.2 km/h 6.4 km/h 87% 0 mm 7 W/m2
16:32 3.1 °C 1.1 °C 1001.6 hPa SSE 3.2 km/h 3.2 km/h 87% 0 mm 5 W/m2
16:38 3 °C 1.2 °C 1001.6 hPa South 3.2 km/h 4.8 km/h 88% 0 mm 5 W/m2
16:44 3 °C 1.2 °C 1001.6 hPa SSW 1.6 km/h 3.2 km/h 88% 0 mm 0 W/m2
16:50 2.9 °C 1.2 °C 1001.2 hPa Calm     88% 0 mm 0 W/m2
16:56 2.8 °C 1.2 °C 1001.6 hPa Calm     89% 0 mm 0 W/m2
17:02 2.7 °C 1.2 °C 1001.2 hPa Calm     90% 0 mm 0 W/m2
17:08 2.6 °C 1.1 °C 1001.2 hPa Calm     90% 0 mm 0 W/m2
17:13 2.6 °C 1.3 °C 1001.2 hPa Calm     91% 0 mm 0 W/m2
17:19 2.6 °C 1.2 °C 1001.2 hPa Calm   1.6 km/h 91% 0 mm 0 W/m2
17:26 2.6 °C 1.2 °C 1001.2 hPa Calm   1.6 km/h 91% 0 mm 0 W/m2
17:32 2.6 °C 1.2 °C 1001.2 hPa Calm     91% 0 mm 0 W/m2
17:38 2.4 °C 1.1 °C 1000.9 hPa Calm     91% 0 mm 0 W/m2
17:43 2.4 °C 1.1 °C 1000.9 hPa Calm     91% 0 mm 0 W/m2
17:49 2.4 °C 1.1 °C 1000.9 hPa Calm     91% 0 mm 0 W/m2
17:56 2.3 °C 0.9 °C 1000.9 hPa Calm     91% 0 mm 0 W/m2
18:02 2.3 °C 0.9 °C 1000.6 hPa Calm   3.2 km/h 91% 0 mm 0 W/m2
18:08 2.3 °C 0.9 °C 1000.6 hPa SSW 1.6 km/h 4.8 km/h 91% 0 mm 0 W/m2
18:14 2.3 °C 0.9 °C 1000.6 hPa SSE 1.6 km/h 4.8 km/h 91% 0 mm 0 W/m2
18:20 2.2 °C 0.8 °C 1000.2 hPa Calm   1.6 km/h 90% 0 mm 0 W/m2
18:25 2.2 °C 0.7 °C 1000.2 hPa Calm   1.6 km/h 90% 0 mm 0 W/m2
18:32 2.1 °C 0.6 °C 1000.2 hPa Calm     90% 0 mm 0 W/m2
18:38 1.8 °C 0.4 °C 1000.2 hPa Calm     90% 0 mm 0 W/m2
18:44 1.7 °C 0.4 °C 999.5 hPa Calm     91% 0 mm 0 W/m2
18:50 1.5 °C 0.2 °C 999.5 hPa Calm     91% 0 mm 0 W/m2
18:55 1.3 °C 0.1 °C 999.5 hPa Calm     92% 0 mm 0 W/m2
19:02 1.2 °C 0 °C 999.5 hPa Calm     92% 0 mm 0 W/m2
19:08 1.1 °C -0.1 °C 999.5 hPa Calm     92% 0 mm 0 W/m2
19:14 1.2 °C 0.2 °C 999.2 hPa Calm   3.2 km/h 93% 0 mm 0 W/m2
19:19 1.1 °C -0.1 °C 999.2 hPa SSE 1.6 km/h 1.6 km/h 92% 0 mm 0 W/m2
19:26 1.3 °C 0.3 °C 999.2 hPa Calm   1.6 km/h 93% 0 mm 0 W/m2
19:32 1.3 °C 0.3 °C 999.2 hPa Calm   1.6 km/h 93% 0 mm 0 W/m2
19:38 1.3 °C 0.3 °C 998.9 hPa Calm   3.2 km/h 93% 0 mm 0 W/m2
19:43 1.5 °C 0.5 °C 998.9 hPa Calm     93% 0 mm 0 W/m2
19:49 1.6 °C 0.6 °C 998.9 hPa ENE 1.6 km/h 1.6 km/h 93% 0 mm 0 W/m2
19:56 1.6 °C 0.6 °C 998.5 hPa Calm   1.6 km/h 93% 0 mm 0 W/m2
20:02 1.7 °C 0.7 °C 998.5 hPa Calm     93% 0 mm 0 W/m2
20:08 1.8 °C 0.8 °C 998.5 hPa Calm     93% 0 mm 0 W/m2
20:14 1.8 °C 0.8 °C 998.5 hPa Calm   1.6 km/h 93% 0 mm 0 W/m2
20:20 1.9 °C 0.9 °C 998.9 hPa Calm     93% 0 mm 0 W/m2
20:26 1.9 °C 0.7 °C 998.9 hPa Calm   3.2 km/h 92% 0 mm 0 W/m2
20:32 1.9 °C 0.7 °C 998.5 hPa Calm     92% 0 mm 0 W/m2
20:38 1.8 °C 0.6 °C 998.5 hPa Calm   1.6 km/h 92% 0 mm 0 W/m2
20:43 1.8 °C 0.7 °C 998.5 hPa ENE 1.6 km/h 1.6 km/h 92% 0 mm 0 W/m2
20:50 1.9 °C 0.7 °C 998.5 hPa ENE 1.6 km/h 1.6 km/h 92% 0 mm 0 W/m2
20:56 1.9 °C 0.8 °C 998.5 hPa Calm   3.2 km/h 92% 0 mm 0 W/m2
21:02 2.1 °C 0.9 °C 998.5 hPa Calm   1.6 km/h 92% 0 mm 0 W/m2
21:08 2 °C 0.8 °C 998.5 hPa Calm   1.6 km/h 92% 0 mm 0 W/m2
21:14 1.9 °C 0.8 °C 998.2 hPa Calm   3.2 km/h 92% 0 mm 0 W/m2
21:19 1.9 °C 0.7 °C 998.2 hPa Calm     92% 0 mm 0 W/m2
21:26 1.9 °C 0.7 °C 998.2 hPa Calm     92% 0 mm 0 W/m2
21:32 1.9 °C 0.8 °C 998.2 hPa Calm     92% 0 mm 0 W/m2
21:38 2 °C 0.8 °C 998.2 hPa Calm     92% 0 mm 0 W/m2
21:44 1.9 °C 0.8 °C 998.2 hPa Calm     92% 0 mm 0 W/m2
21:50 1.9 °C 0.7 °C 997.9 hPa Calm     92% 0 mm 0 W/m2
21:55 1.9 °C 0.7 °C 997.9 hPa Calm     92% 0 mm 0 W/m2
22:02 1.8 °C 0.7 °C 997.9 hPa ENE 1.6 km/h 1.6 km/h 92% 0 mm 0 W/m2
22:08 1.8 °C 0.8 °C 997.5 hPa ENE 1.6 km/h 1.6 km/h 93% 0 mm 0 W/m2
22:13 1.8 °C 0.8 °C 997.5 hPa Calm   1.6 km/h 93% 0 mm 0 W/m2
22:16 1.8 °C 0.8 °C 997.5 hPa Calm   1.6 km/h 93% 0 mm 0 W/m2
22:22 1.7 °C 0.5 °C 997.2 hPa ENE 1.6 km/h 1.6 km/h 92% 0 mm 0 W/m2
22:28 1.4 °C 0.3 °C 996.8 hPa ENE 1.6 km/h 8 km/h 92% 0 mm 0 W/m2
22:33 1.4 °C 0.4 °C 996.8 hPa NE 1.6 km/h 3.2 km/h 93% 0 mm 0 W/m2
22:39 1.3 °C 0.2 °C 996.5 hPa NE 1.6 km/h 1.6 km/h 92% 0 mm 0 W/m2
22:46 1.2 °C 0 °C 996.8 hPa NE 1.6 km/h 3.2 km/h 92% 0 mm 0 W/m2
22:52 0.9 °C -0.2 °C 996.8 hPa NE 1.6 km/h 1.6 km/h 92% 0 mm 0 W/m2
22:58 0.9 °C -0.3 °C 996.8 hPa Calm   1.6 km/h 92% 0 mm 0 W/m2
23:04 0.7 °C -0.4 °C 996.5 hPa Calm   4.8 km/h 92% 0 mm 0 W/m2
23:10 0.7 °C -0.3 °C 996.8 hPa ENE 1.6 km/h 1.6 km/h 93% 0 mm 0 W/m2
23:15 0.7 °C -0.3 °C 996.5 hPa ENE 1.6 km/h 1.6 km/h 93% 0 mm 0 W/m2
23:22 0.6 °C -0.4 °C 996.5 hPa ENE 1.6 km/h 6.4 km/h 93% 0 mm 0 W/m2
23:28 0.4 °C -0.6 °C 996.5 hPa ENE 1.6 km/h 6.4 km/h 93% 0 mm 0 W/m2
23:34 0.4 °C -0.6 °C 996.5 hPa Calm     93% 0 mm 0 W/m2
23:40 0.3 °C -0.7 °C 996.5 hPa Calm     93% 0 mm 0 W/m2
23:45 0.2 °C -0.8 °C 996.5 hPa Calm     93% 0 mm 0 W/m2
23:52 0.3 °C -0.7 °C 996.2 hPa Calm     93% 0 mm 0 W/m2
23:58 0.4 °C -0.6 °C 996.2 hPa Calm     93% 0 mm 0 W/m2
Country Meadow, Clay, NY, USA
Compliments of Weather Underground - 2 mb